sensor_id;sensor_type;location;lat;lon;timestamp;P1;durP1;ratioP1;P2;durP2;ratioP2
74044;SDS011;62389;51.412;5.436;2022-07-24T00:01:08;12.87;;;8.90;;
74044;SDS011;62389;51.412;5.436;2022-07-24T00:03:33;14.93;;;10.03;;
74044;SDS011;62389;51.412;5.436;2022-07-24T00:05:58;13.20;;;10.97;;
74044;SDS011;62389;51.412;5.436;2022-07-24T00:08:24;15.23;;;9.48;;
74044;SDS011;62389;51.412;5.436;2022-07-24T00:10:49;13.60;;;10.10;;
74044;SDS011;62389;51.412;5.436;2022-07-24T00:13:14;13.55;;;9.80;;
74044;SDS011;62389;51.412;5.436;2022-07-24T00:15:40;12.77;;;10.68;;
74044;SDS011;62389;51.412;5.436;2022-07-24T00:18:05;12.90;;;9.60;;
74044;SDS011;62389;51.412;5.436;2022-07-24T00:20:30;12.80;;;10.10;;
74044;SDS011;62389;51.412;5.436;2022-07-24T00:22:55;13.17;;;9.07;;
74044;SDS011;62389;51.412;5.436;2022-07-24T00:25:20;12.47;;;8.87;;
74044;SDS011;62389;51.412;5.436;2022-07-24T00:27:46;11.00;;;8.57;;
74044;SDS011;62389;51.412;5.436;2022-07-24T00:30:11;12.13;;;9.37;;
74044;SDS011;62389;51.412;5.436;2022-07-24T00:32:36;12.60;;;9.55;;
74044;SDS011;62389;51.412;5.436;2022-07-24T00:35:01;11.83;;;9.53;;
74044;SDS011;62389;51.412;5.436;2022-07-24T00:37:27;11.85;;;8.55;;
74044;SDS011;62389;51.412;5.436;2022-07-24T00:39:52;14.07;;;9.13;;
74044;SDS011;62389;51.412;5.436;2022-07-24T00:42:17;12.20;;;8.20;;
74044;SDS011;62389;51.412;5.436;2022-07-24T00:44:43;10.33;;;8.20;;
74044;SDS011;62389;51.412;5.436;2022-07-24T00:47:08;13.27;;;9.18;;
74044;SDS011;62389;51.412;5.436;2022-07-24T00:49:33;12.63;;;8.17;;
74044;SDS011;62389;51.412;5.436;2022-07-24T00:51:58;12.87;;;9.40;;
74044;SDS011;62389;51.412;5.436;2022-07-24T00:54:23;9.83;;;7.97;;
74044;SDS011;62389;51.412;5.436;2022-07-24T00:56:50;12.18;;;9.15;;
74044;SDS011;62389;51.412;5.436;2022-07-24T00:59:15;11.18;;;9.00;;
74044;SDS011;62389;51.412;5.436;2022-07-24T01:01:40;11.15;;;8.80;;
74044;SDS011;62389;51.412;5.436;2022-07-24T01:04:06;10.90;;;7.87;;
74044;SDS011;62389;51.412;5.436;2022-07-24T01:06:31;11.25;;;8.57;;
74044;SDS011;62389;51.412;5.436;2022-07-24T01:08:56;9.88;;;7.45;;
74044;SDS011;62389;51.412;5.436;2022-07-24T01:11:22;11.87;;;8.03;;
74044;SDS011;62389;51.412;5.436;2022-07-24T01:13:48;10.90;;;8.57;;
74044;SDS011;62389;51.412;5.436;2022-07-24T01:16:14;10.88;;;8.30;;
74044;SDS011;62389;51.412;5.436;2022-07-24T01:18:39;13.13;;;7.55;;
74044;SDS011;62389;51.412;5.436;2022-07-24T01:21:05;11.00;;;8.10;;
74044;SDS011;62389;51.412;5.436;2022-07-24T01:23:30;13.05;;;7.35;;
74044;SDS011;62389;51.412;5.436;2022-07-24T01:25:55;10.07;;;7.70;;
74044;SDS011;62389;51.412;5.436;2022-07-24T01:28:21;10.63;;;7.88;;
74044;SDS011;62389;51.412;5.436;2022-07-24T01:30:46;10.10;;;8.03;;
74044;SDS011;62389;51.412;5.436;2022-07-24T01:33:11;9.73;;;7.88;;
74044;SDS011;62389;51.412;5.436;2022-07-24T01:35:37;10.30;;;7.72;;
74044;SDS011;62389;51.412;5.436;2022-07-24T01:38:02;12.00;;;8.40;;
74044;SDS011;62389;51.412;5.436;2022-07-24T01:40:27;13.25;;;9.07;;
74044;SDS011;62389;51.412;5.436;2022-07-24T01:42:52;11.90;;;8.23;;
74044;SDS011;62389;51.412;5.436;2022-07-24T01:45:18;12.90;;;9.73;;
74044;SDS011;62389;51.412;5.436;2022-07-24T01:47:43;14.07;;;9.48;;
74044;SDS011;62389;51.412;5.436;2022-07-24T01:50:10;13.25;;;10.32;;
74044;SDS011;62389;51.412;5.436;2022-07-24T01:52:35;14.82;;;10.38;;
74044;SDS011;62389;51.412;5.436;2022-07-24T01:55:01;13.45;;;9.43;;
74044;SDS011;62389;51.412;5.436;2022-07-24T01:57:26;12.87;;;9.50;;
74044;SDS011;62389;51.412;5.436;2022-07-24T01:59:51;13.77;;;9.87;;
74044;SDS011;62389;51.412;5.436;2022-07-24T02:02:16;14.97;;;10.57;;
74044;SDS011;62389;51.412;5.436;2022-07-24T02:04:42;13.47;;;9.83;;
74044;SDS011;62389;51.412;5.436;2022-07-24T02:07:07;18.53;;;10.33;;
74044;SDS011;62389;51.412;5.436;2022-07-24T02:09:32;12.40;;;9.40;;
74044;SDS011;62389;51.412;5.436;2022-07-24T02:11:57;15.03;;;9.87;;
74044;SDS011;62389;51.412;5.436;2022-07-24T02:14:22;11.43;;;8.80;;
74044;SDS011;62389;51.412;5.436;2022-07-24T02:16:48;10.67;;;7.87;;
74044;SDS011;62389;51.412;5.436;2022-07-24T02:19:13;10.45;;;8.27;;
74044;SDS011;62389;51.412;5.436;2022-07-24T02:21:39;13.27;;;8.93;;
74044;SDS011;62389;51.412;5.436;2022-07-24T02:24:04;12.43;;;8.60;;
74044;SDS011;62389;51.412;5.436;2022-07-24T02:26:29;12.95;;;8.55;;
74044;SDS011;62389;51.412;5.436;2022-07-24T02:28:55;11.52;;;8.65;;
74044;SDS011;62389;51.412;5.436;2022-07-24T02:31:20;13.10;;;9.00;;
74044;SDS011;62389;51.412;5.436;2022-07-24T02:33:45;13.53;;;10.00;;
74044;SDS011;62389;51.412;5.436;2022-07-24T02:36:10;11.87;;;8.90;;
74044;SDS011;62389;51.412;5.436;2022-07-24T02:38:36;14.27;;;9.88;;
74044;SDS011;62389;51.412;5.436;2022-07-24T02:41:01;15.77;;;11.32;;
74044;SDS011;62389;51.412;5.436;2022-07-24T02:43:26;14.65;;;9.65;;
74044;SDS011;62389;51.412;5.436;2022-07-24T02:45:51;13.33;;;10.10;;
74044;SDS011;62389;51.412;5.436;2022-07-24T02:48:16;12.07;;;9.47;;
74044;SDS011;62389;51.412;5.436;2022-07-24T02:50:42;13.68;;;10.45;;
74044;SDS011;62389;51.412;5.436;2022-07-24T02:53:07;14.45;;;10.98;;
74044;SDS011;62389;51.412;5.436;2022-07-24T02:55:32;15.63;;;11.30;;
74044;SDS011;62389;51.412;5.436;2022-07-24T02:57:57;17.52;;;11.38;;
74044;SDS011;62389;51.412;5.436;2022-07-24T03:00:23;14.43;;;11.60;;
74044;SDS011;62389;51.412;5.436;2022-07-24T03:02:49;13.68;;;10.95;;
74044;SDS011;62389;51.412;5.436;2022-07-24T03:05:14;15.30;;;10.20;;
74044;SDS011;62389;51.412;5.436;2022-07-24T03:07:40;13.65;;;11.10;;
74044;SDS011;62389;51.412;5.436;2022-07-24T03:10:06;13.30;;;10.15;;
74044;SDS011;62389;51.412;5.436;2022-07-24T03:12:31;16.40;;;11.30;;
74044;SDS011;62389;51.412;5.436;2022-07-24T03:14:56;12.93;;;10.32;;
74044;SDS011;62389;51.412;5.436;2022-07-24T03:17:22;13.13;;;10.17;;
74044;SDS011;62389;51.412;5.436;2022-07-24T03:19:47;13.93;;;9.70;;
74044;SDS011;62389;51.412;5.436;2022-07-24T03:22:12;13.93;;;11.10;;
74044;SDS011;62389;51.412;5.436;2022-07-24T03:24:38;16.98;;;11.23;;
74044;SDS011;62389;51.412;5.436;2022-07-24T03:27:03;13.93;;;9.07;;
74044;SDS011;62389;51.412;5.436;2022-07-24T03:29:28;17.20;;;10.60;;
74044;SDS011;62389;51.412;5.436;2022-07-24T03:31:53;15.13;;;11.13;;
74044;SDS011;62389;51.412;5.436;2022-07-24T03:34:19;16.67;;;11.30;;
74044;SDS011;62389;51.412;5.436;2022-07-24T03:36:45;16.35;;;10.57;;
74044;SDS011;62389;51.412;5.436;2022-07-24T03:39:10;20.40;;;11.85;;
74044;SDS011;62389;51.412;5.436;2022-07-24T03:41:35;15.90;;;11.60;;
74044;SDS011;62389;51.412;5.436;2022-07-24T03:44:01;14.60;;;10.60;;
74044;SDS011;62389;51.412;5.436;2022-07-24T03:46:26;14.07;;;11.00;;
74044;SDS011;62389;51.412;5.436;2022-07-24T03:48:53;16.95;;;12.10;;
74044;SDS011;62389;51.412;5.436;2022-07-24T03:51:18;15.18;;;11.77;;
74044;SDS011;62389;51.412;5.436;2022-07-24T03:53:44;18.17;;;11.77;;
74044;SDS011;62389;51.412;5.436;2022-07-24T03:56:09;18.03;;;11.57;;
74044;SDS011;62389;51.412;5.436;2022-07-24T03:58:35;13.57;;;9.90;;
74044;SDS011;62389;51.412;5.436;2022-07-24T04:01:00;13.98;;;11.10;;
74044;SDS011;62389;51.412;5.436;2022-07-24T04:03:25;14.35;;;10.52;;
74044;SDS011;62389;51.412;5.436;2022-07-24T04:05:51;18.13;;;11.47;;
74044;SDS011;62389;51.412;5.436;2022-07-24T04:08:16;16.47;;;11.93;;
74044;SDS011;62389;51.412;5.436;2022-07-24T04:10:41;15.03;;;11.10;;
74044;SDS011;62389;51.412;5.436;2022-07-24T04:13:06;14.97;;;11.50;;
74044;SDS011;62389;51.412;5.436;2022-07-24T04:15:31;22.93;;;13.53;;
74044;SDS011;62389;51.412;5.436;2022-07-24T04:17:57;18.43;;;13.47;;
74044;SDS011;62389;51.412;5.436;2022-07-24T04:20:22;16.10;;;12.17;;
74044;SDS011;62389;51.412;5.436;2022-07-24T04:22:47;14.07;;;10.63;;
74044;SDS011;62389;51.412;5.436;2022-07-24T04:25:12;17.10;;;12.30;;
74044;SDS011;62389;51.412;5.436;2022-07-24T04:27:38;20.33;;;12.73;;
74044;SDS011;62389;51.412;5.436;2022-07-24T04:30:03;19.45;;;13.15;;
74044;SDS011;62389;51.412;5.436;2022-07-24T04:32:29;19.83;;;14.40;;
74044;SDS011;62389;51.412;5.436;2022-07-24T04:34:54;19.40;;;14.83;;
74044;SDS011;62389;51.412;5.436;2022-07-24T04:37:19;20.30;;;15.03;;
74044;SDS011;62389;51.412;5.436;2022-07-24T04:39:44;22.70;;;16.13;;
74044;SDS011;62389;51.412;5.436;2022-07-24T04:42:10;21.03;;;15.50;;
74044;SDS011;62389;51.412;5.436;2022-07-24T04:44:35;22.15;;;16.55;;
74044;SDS011;62389;51.412;5.436;2022-07-24T04:47:00;22.63;;;17.03;;
74044;SDS011;62389;51.412;5.436;2022-07-24T04:49:25;27.00;;;17.33;;
74044;SDS011;62389;51.412;5.436;2022-07-24T04:51:50;30.23;;;18.33;;
74044;SDS011;62389;51.412;5.436;2022-07-24T04:54:16;27.70;;;17.50;;
74044;SDS011;62389;51.412;5.436;2022-07-24T04:56:41;26.90;;;18.03;;
74044;SDS011;62389;51.412;5.436;2022-07-24T04:59:06;30.10;;;18.50;;
74044;SDS011;62389;51.412;5.436;2022-07-24T05:01:31;26.03;;;18.77;;
74044;SDS011;62389;51.412;5.436;2022-07-24T05:03:57;26.83;;;19.07;;
74044;SDS011;62389;51.412;5.436;2022-07-24T05:06:23;31.27;;;19.60;;
74044;SDS011;62389;51.412;5.436;2022-07-24T05:08:48;30.13;;;18.60;;
74044;SDS011;62389;51.412;5.436;2022-07-24T05:11:14;30.57;;;20.50;;
74044;SDS011;62389;51.412;5.436;2022-07-24T05:13:39;30.90;;;20.17;;
74044;SDS011;62389;51.412;5.436;2022-07-24T05:16:04;31.60;;;19.77;;
74044;SDS011;62389;51.412;5.436;2022-07-24T05:18:30;34.73;;;21.83;;
74044;SDS011;62389;51.412;5.436;2022-07-24T05:20:55;35.40;;;21.63;;
74044;SDS011;62389;51.412;5.436;2022-07-24T05:23:20;35.47;;;22.30;;
74044;SDS011;62389;51.412;5.436;2022-07-24T05:25:45;34.40;;;23.17;;
74044;SDS011;62389;51.412;5.436;2022-07-24T05:28:10;34.23;;;22.63;;
74044;SDS011;62389;51.412;5.436;2022-07-24T05:30:36;36.77;;;24.53;;
74044;SDS011;62389;51.412;5.436;2022-07-24T05:33:01;38.37;;;23.03;;
74044;SDS011;62389;51.412;5.436;2022-07-24T05:35:26;37.90;;;24.43;;
74044;SDS011;62389;51.412;5.436;2022-07-24T05:37:51;34.17;;;24.13;;
74044;SDS011;62389;51.412;5.436;2022-07-24T05:40:17;36.13;;;21.50;;
74044;SDS011;62389;51.412;5.436;2022-07-24T05:42:42;39.63;;;23.23;;
74044;SDS011;62389;51.412;5.436;2022-07-24T05:45:07;36.23;;;23.60;;
74044;SDS011;62389;51.412;5.436;2022-07-24T05:47:36;34.47;;;21.88;;
74044;SDS011;62389;51.412;5.436;2022-07-24T05:50:02;37.15;;;24.33;;
74044;SDS011;62389;51.412;5.436;2022-07-24T05:52:27;32.35;;;21.67;;
74044;SDS011;62389;51.412;5.436;2022-07-24T05:54:52;35.20;;;22.77;;
74044;SDS011;62389;51.412;5.436;2022-07-24T05:57:18;35.60;;;23.40;;
74044;SDS011;62389;51.412;5.436;2022-07-24T05:59:43;36.60;;;23.67;;
74044;SDS011;62389;51.412;5.436;2022-07-24T06:02:08;31.70;;;22.53;;
74044;SDS011;62389;51.412;5.436;2022-07-24T06:04:33;40.23;;;24.83;;
74044;SDS011;62389;51.412;5.436;2022-07-24T06:07:00;37.65;;;23.23;;
74044;SDS011;62389;51.412;5.436;2022-07-24T06:09:26;38.45;;;25.75;;
74044;SDS011;62389;51.412;5.436;2022-07-24T06:11:51;39.20;;;23.33;;
74044;SDS011;62389;51.412;5.436;2022-07-24T06:14:16;35.07;;;24.17;;
74044;SDS011;62389;51.412;5.436;2022-07-24T06:16:41;35.23;;;23.00;;
74044;SDS011;62389;51.412;5.436;2022-07-24T06:19:06;37.80;;;23.10;;
74044;SDS011;62389;51.412;5.436;2022-07-24T06:21:32;32.23;;;22.07;;
74044;SDS011;62389;51.412;5.436;2022-07-24T06:23:57;30.33;;;20.97;;
74044;SDS011;62389;51.412;5.436;2022-07-24T06:26:22;31.90;;;20.93;;
74044;SDS011;62389;51.412;5.436;2022-07-24T06:28:47;25.87;;;17.17;;
74044;SDS011;62389;51.412;5.436;2022-07-24T06:31:12;26.23;;;16.87;;
74044;SDS011;62389;51.412;5.436;2022-07-24T06:33:38;24.67;;;16.97;;
74044;SDS011;62389;51.412;5.436;2022-07-24T06:36:03;22.97;;;14.67;;
74044;SDS011;62389;51.412;5.436;2022-07-24T06:38:28;21.42;;;14.73;;
74044;SDS011;62389;51.412;5.436;2022-07-24T06:40:54;22.20;;;13.50;;
74044;SDS011;62389;51.412;5.436;2022-07-24T06:43:19;21.07;;;13.63;;
74044;SDS011;62389;51.412;5.436;2022-07-24T06:45:44;21.70;;;13.97;;
74044;SDS011;62389;51.412;5.436;2022-07-24T06:48:09;20.98;;;14.65;;
74044;SDS011;62389;51.412;5.436;2022-07-24T06:50:35;21.50;;;13.50;;
74044;SDS011;62389;51.412;5.436;2022-07-24T06:53:00;24.77;;;15.98;;
74044;SDS011;62389;51.412;5.436;2022-07-24T06:55:25;20.88;;;13.43;;
74044;SDS011;62389;51.412;5.436;2022-07-24T06:57:50;19.23;;;13.70;;
74044;SDS011;62389;51.412;5.436;2022-07-24T07:00:16;17.83;;;12.60;;
74044;SDS011;62389;51.412;5.436;2022-07-24T07:02:41;19.05;;;11.07;;
74044;SDS011;62389;51.412;5.436;2022-07-24T07:05:06;16.35;;;11.00;;
74044;SDS011;62389;51.412;5.436;2022-07-24T07:07:32;14.10;;;8.90;;
74044;SDS011;62389;51.412;5.436;2022-07-24T07:09:57;16.17;;;10.35;;
74044;SDS011;62389;51.412;5.436;2022-07-24T07:12:23;10.33;;;8.33;;
74044;SDS011;62389;51.412;5.436;2022-07-24T07:14:48;11.48;;;7.30;;
74044;SDS011;62389;51.412;5.436;2022-07-24T07:17:13;14.77;;;7.57;;
74044;SDS011;62389;51.412;5.436;2022-07-24T07:19:41;12.13;;;8.00;;
74044;SDS011;62389;51.412;5.436;2022-07-24T07:22:06;10.73;;;6.30;;
74044;SDS011;62389;51.412;5.436;2022-07-24T07:24:31;7.90;;;6.67;;
74044;SDS011;62389;51.412;5.436;2022-07-24T07:26:56;10.33;;;5.87;;
74044;SDS011;62389;51.412;5.436;2022-07-24T07:29:21;8.50;;;5.10;;
74044;SDS011;62389;51.412;5.436;2022-07-24T07:31:47;8.37;;;6.07;;
74044;SDS011;62389;51.412;5.436;2022-07-24T07:34:12;8.90;;;5.90;;
74044;SDS011;62389;51.412;5.436;2022-07-24T07:36:37;8.23;;;4.80;;
74044;SDS011;62389;51.412;5.436;2022-07-24T07:39:03;6.78;;;4.90;;
74044;SDS011;62389;51.412;5.436;2022-07-24T07:41:28;8.13;;;5.77;;
74044;SDS011;62389;51.412;5.436;2022-07-24T07:43:53;6.33;;;4.57;;
74044;SDS011;62389;51.412;5.436;2022-07-24T07:46:19;10.93;;;4.73;;
74044;SDS011;62389;51.412;5.436;2022-07-24T07:48:44;7.22;;;4.53;;
74044;SDS011;62389;51.412;5.436;2022-07-24T07:51:09;7.67;;;5.53;;
74044;SDS011;62389;51.412;5.436;2022-07-24T07:53:34;6.78;;;4.75;;
74044;SDS011;62389;51.412;5.436;2022-07-24T07:56:00;9.57;;;4.30;;
74044;SDS011;62389;51.412;5.436;2022-07-24T07:58:26;7.78;;;5.22;;
74044;SDS011;62389;51.412;5.436;2022-07-24T08:00:52;6.65;;;5.40;;
74044;SDS011;62389;51.412;5.436;2022-07-24T08:03:17;7.50;;;4.90;;
74044;SDS011;62389;51.412;5.436;2022-07-24T08:05:42;12.43;;;4.97;;
74044;SDS011;62389;51.412;5.436;2022-07-24T08:08:08;8.27;;;4.33;;
74044;SDS011;62389;51.412;5.436;2022-07-24T08:10:33;6.97;;;4.50;;
74044;SDS011;62389;51.412;5.436;2022-07-24T08:12:58;7.20;;;5.30;;
74044;SDS011;62389;51.412;5.436;2022-07-24T08:15:23;6.22;;;4.40;;
74044;SDS011;62389;51.412;5.436;2022-07-24T08:17:52;4.80;;;3.80;;
74044;SDS011;62389;51.412;5.436;2022-07-24T08:20:18;6.72;;;4.65;;
74044;SDS011;62389;51.412;5.436;2022-07-24T08:22:44;5.53;;;4.18;;
74044;SDS011;62389;51.412;5.436;2022-07-24T08:25:10;5.97;;;3.93;;
74044;SDS011;62389;51.412;5.436;2022-07-24T08:27:36;7.38;;;4.35;;
74044;SDS011;62389;51.412;5.436;2022-07-24T08:30:01;5.00;;;3.58;;
74044;SDS011;62389;51.412;5.436;2022-07-24T08:32:27;4.97;;;3.85;;
74044;SDS011;62389;51.412;5.436;2022-07-24T08:34:52;6.83;;;3.53;;
74044;SDS011;62389;51.412;5.436;2022-07-24T08:37:20;8.10;;;4.20;;
74044;SDS011;62389;51.412;5.436;2022-07-24T08:39:45;9.93;;;3.47;;
74044;SDS011;62389;51.412;5.436;2022-07-24T08:42:11;6.18;;;3.78;;
74044;SDS011;62389;51.412;5.436;2022-07-24T08:44:37;5.67;;;3.73;;
74044;SDS011;62389;51.412;5.436;2022-07-24T08:49:29;5.57;;;2.90;;
74044;SDS011;62389;51.412;5.436;2022-07-24T08:51:55;4.30;;;3.20;;
74044;SDS011;62389;51.412;5.436;2022-07-24T08:54:24;4.45;;;2.72;;
74044;SDS011;62389;51.412;5.436;2022-07-24T08:56:49;5.25;;;2.85;;
74044;SDS011;62389;51.412;5.436;2022-07-24T08:59:15;3.27;;;2.73;;
74044;SDS011;62389;51.412;5.436;2022-07-24T09:01:41;6.00;;;2.60;;
74044;SDS011;62389;51.412;5.436;2022-07-24T09:04:07;4.10;;;2.80;;
74044;SDS011;62389;51.412;5.436;2022-07-24T09:06:55;4.35;;;2.63;;
74044;SDS011;62389;51.412;5.436;2022-07-24T09:09:21;4.68;;;2.65;;
74044;SDS011;62389;51.412;5.436;2022-07-24T09:11:46;3.27;;;2.30;;
74044;SDS011;62389;51.412;5.436;2022-07-24T09:14:11;3.50;;;2.67;;
74044;SDS011;62389;51.412;5.436;2022-07-24T09:17:00;3.55;;;2.60;;
74044;SDS011;62389;51.412;5.436;2022-07-24T09:19:26;3.35;;;2.50;;
74044;SDS011;62389;51.412;5.436;2022-07-24T09:21:51;3.47;;;2.40;;
74044;SDS011;62389;51.412;5.436;2022-07-24T09:24:19;4.15;;;2.58;;
74044;SDS011;62389;51.412;5.436;2022-07-24T09:26:54;3.55;;;2.83;;
74044;SDS011;62389;51.412;5.436;2022-07-24T09:29:24;4.15;;;2.75;;
74044;SDS011;62389;51.412;5.436;2022-07-24T09:36:40;4.45;;;2.20;;
74044;SDS011;62389;51.412;5.436;2022-07-24T09:41:31;3.90;;;2.30;;
74044;SDS011;62389;51.412;5.436;2022-07-24T09:46:23;3.33;;;2.22;;
74044;SDS011;62389;51.412;5.436;2022-07-24T09:48:51;2.88;;;2.40;;
74044;SDS011;62389;51.412;5.436;2022-07-24T09:51:16;3.38;;;2.50;;
74044;SDS011;62389;51.412;5.436;2022-07-24T09:53:42;4.30;;;2.50;;
74044;SDS011;62389;51.412;5.436;2022-07-24T09:56:09;3.15;;;2.42;;
74044;SDS011;62389;51.412;5.436;2022-07-24T09:58:36;4.28;;;2.40;;
74044;SDS011;62389;51.412;5.436;2022-07-24T10:01:02;4.13;;;2.38;;
74044;SDS011;62389;51.412;5.436;2022-07-24T10:03:28;5.28;;;2.42;;
74044;SDS011;62389;51.412;5.436;2022-07-24T10:05:55;3.28;;;2.50;;
74044;SDS011;62389;51.412;5.436;2022-07-24T10:08:21;4.25;;;2.40;;
74044;SDS011;62389;51.412;5.436;2022-07-24T10:10:47;2.50;;;1.92;;
74044;SDS011;62389;51.412;5.436;2022-07-24T10:13:14;3.35;;;2.72;;
74044;SDS011;62389;51.412;5.436;2022-07-24T10:20:39;3.05;;;2.70;;
74044;SDS011;62389;51.412;5.436;2022-07-24T10:23:05;4.00;;;2.50;;
74044;SDS011;62389;51.412;5.436;2022-07-24T10:25:34;3.05;;;2.75;;
74044;SDS011;62389;51.412;5.436;2022-07-24T10:28:03;5.45;;;2.95;;
74044;SDS011;62389;51.412;5.436;2022-07-24T10:30:33;3.97;;;2.90;;
74044;SDS011;62389;51.412;5.436;2022-07-24T10:32:58;4.63;;;2.97;;
74044;SDS011;62389;51.412;5.436;2022-07-24T10:35:24;3.85;;;2.70;;
74044;SDS011;62389;51.412;5.436;2022-07-24T10:37:55;3.38;;;2.63;;
74044;SDS011;62389;51.412;5.436;2022-07-24T10:45:28;4.38;;;3.30;;
74044;SDS011;62389;51.412;5.436;2022-07-24T10:47:56;4.10;;;3.40;;
74044;SDS011;62389;51.412;5.436;2022-07-24T10:50:21;4.22;;;2.85;;
74044;SDS011;62389;51.412;5.436;2022-07-24T10:52:47;3.45;;;2.70;;
74044;SDS011;62389;51.412;5.436;2022-07-24T10:55:25;4.00;;;2.80;;
74044;SDS011;62389;51.412;5.436;2022-07-24T10:57:54;3.55;;;2.65;;
74044;SDS011;62389;51.412;5.436;2022-07-24T11:00:24;3.78;;;2.83;;
74044;SDS011;62389;51.412;5.436;2022-07-24T11:03:00;3.92;;;2.85;;
74044;SDS011;62389;51.412;5.436;2022-07-24T11:05:27;4.25;;;2.90;;
74044;SDS011;62389;51.412;5.436;2022-07-24T11:10:44;3.67;;;2.72;;
74044;SDS011;62389;51.412;5.436;2022-07-24T11:13:38;3.63;;;2.80;;
74044;SDS011;62389;51.412;5.436;2022-07-24T11:18:36;4.60;;;2.40;;
74044;SDS011;62389;51.412;5.436;2022-07-24T11:21:02;4.05;;;2.65;;
74044;SDS011;62389;51.412;5.436;2022-07-24T11:23:27;5.13;;;2.70;;
74044;SDS011;62389;51.412;5.436;2022-07-24T11:26:35;5.43;;;2.63;;
74044;SDS011;62389;51.412;5.436;2022-07-24T11:28:37;3.67;;;2.70;;
74044;SDS011;62389;51.412;5.436;2022-07-24T11:31:03;4.87;;;2.80;;
74044;SDS011;62389;51.412;5.436;2022-07-24T11:33:28;4.65;;;2.50;;
74044;SDS011;62389;51.412;5.436;2022-07-24T11:35:54;3.30;;;2.90;;
74044;SDS011;62389;51.412;5.436;2022-07-24T11:38:19;4.57;;;2.70;;
74044;SDS011;62389;51.412;5.436;2022-07-24T11:40:52;4.10;;;2.90;;
74044;SDS011;62389;51.412;5.436;2022-07-24T11:43:28;5.32;;;3.20;;
74044;SDS011;62389;51.412;5.436;2022-07-24T11:45:54;4.70;;;2.83;;
74044;SDS011;62389;51.412;5.436;2022-07-24T11:48:19;9.00;;;3.17;;
74044;SDS011;62389;51.412;5.436;2022-07-24T11:50:45;5.93;;;2.85;;
74044;SDS011;62389;51.412;5.436;2022-07-24T11:53:10;4.78;;;2.60;;
74044;SDS011;62389;51.412;5.436;2022-07-24T11:55:35;5.67;;;2.97;;
74044;SDS011;62389;51.412;5.436;2022-07-24T11:58:01;5.93;;;2.95;;
74044;SDS011;62389;51.412;5.436;2022-07-24T12:00:27;3.70;;;2.70;;
74044;SDS011;62389;51.412;5.436;2022-07-24T12:02:54;4.65;;;3.05;;
74044;SDS011;62389;51.412;5.436;2022-07-24T12:05:23;5.15;;;2.78;;
74044;SDS011;62389;51.412;5.436;2022-07-24T12:07:49;3.92;;;2.85;;
74044;SDS011;62389;51.412;5.436;2022-07-24T12:10:14;5.60;;;2.57;;
74044;SDS011;62389;51.412;5.436;2022-07-24T12:12:43;4.28;;;2.78;;
74044;SDS011;62389;51.412;5.436;2022-07-24T12:15:09;4.65;;;2.50;;
74044;SDS011;62389;51.412;5.436;2022-07-24T12:20:24;3.47;;;2.83;;
74044;SDS011;62389;51.412;5.436;2022-07-24T12:22:50;4.05;;;2.80;;
74044;SDS011;62389;51.412;5.436;2022-07-24T12:25:16;4.60;;;2.78;;
74044;SDS011;62389;51.412;5.436;2022-07-24T12:27:42;5.43;;;2.90;;
74044;SDS011;62389;51.412;5.436;2022-07-24T12:30:18;5.90;;;3.00;;
74044;SDS011;62389;51.412;5.436;2022-07-24T12:32:56;4.30;;;2.97;;
74044;SDS011;62389;51.412;5.436;2022-07-24T12:35:22;3.67;;;2.63;;
74044;SDS011;62389;51.412;5.436;2022-07-24T12:37:47;4.05;;;2.60;;
74044;SDS011;62389;51.412;5.436;2022-07-24T12:43:08;3.92;;;2.70;;
74044;SDS011;62389;51.412;5.436;2022-07-24T12:45:34;4.97;;;3.10;;
74044;SDS011;62389;51.412;5.436;2022-07-24T12:48:10;3.85;;;2.88;;
74044;SDS011;62389;51.412;5.436;2022-07-24T12:50:38;5.45;;;2.72;;
74044;SDS011;62389;51.412;5.436;2022-07-24T12:53:04;4.32;;;2.72;;
74044;SDS011;62389;51.412;5.436;2022-07-24T12:55:30;3.42;;;2.75;;
74044;SDS011;62389;51.412;5.436;2022-07-24T12:58:02;5.23;;;2.40;;
74044;SDS011;62389;51.412;5.436;2022-07-24T13:00:28;4.85;;;2.55;;
74044;SDS011;62389;51.412;5.436;2022-07-24T13:02:53;3.72;;;2.78;;
74044;SDS011;62389;51.412;5.436;2022-07-24T13:05:38;4.35;;;2.80;;
74044;SDS011;62389;51.412;5.436;2022-07-24T13:08:03;5.10;;;3.00;;
74044;SDS011;62389;51.412;5.436;2022-07-24T13:10:29;3.40;;;2.50;;
74044;SDS011;62389;51.412;5.436;2022-07-24T13:12:54;5.13;;;3.13;;
74044;SDS011;62389;51.412;5.436;2022-07-24T13:15:20;4.05;;;2.90;;
74044;SDS011;62389;51.412;5.436;2022-07-24T13:17:45;3.92;;;2.70;;
74044;SDS011;62389;51.412;5.436;2022-07-24T13:20:11;4.32;;;2.65;;
74044;SDS011;62389;51.412;5.436;2022-07-24T13:22:36;6.40;;;2.85;;
74044;SDS011;62389;51.412;5.436;2022-07-24T13:25:01;3.80;;;2.80;;
74044;SDS011;62389;51.412;5.436;2022-07-24T13:27:27;3.45;;;2.80;;
74044;SDS011;62389;51.412;5.436;2022-07-24T13:29:52;4.90;;;2.80;;
74044;SDS011;62389;51.412;5.436;2022-07-24T13:32:17;4.35;;;2.83;;
74044;SDS011;62389;51.412;5.436;2022-07-24T13:34:42;3.63;;;2.78;;
74044;SDS011;62389;51.412;5.436;2022-07-24T13:37:07;6.10;;;2.90;;
74044;SDS011;62389;51.412;5.436;2022-07-24T13:39:33;4.30;;;2.90;;
74044;SDS011;62389;51.412;5.436;2022-07-24T13:41:58;4.90;;;2.92;;
74044;SDS011;62389;51.412;5.436;2022-07-24T13:44:24;4.50;;;3.10;;
74044;SDS011;62389;51.412;5.436;2022-07-24T13:46:49;3.77;;;2.93;;
74044;SDS011;62389;51.412;5.436;2022-07-24T13:49:15;4.38;;;2.65;;
74044;SDS011;62389;51.412;5.436;2022-07-24T13:51:40;4.22;;;2.88;;
74044;SDS011;62389;51.412;5.436;2022-07-24T13:54:05;3.53;;;2.70;;
74044;SDS011;62389;51.412;5.436;2022-07-24T13:56:31;3.67;;;2.30;;
74044;SDS011;62389;51.412;5.436;2022-07-24T13:58:57;4.50;;;3.17;;
74044;SDS011;62389;51.412;5.436;2022-07-24T14:01:22;4.88;;;2.80;;
74044;SDS011;62389;51.412;5.436;2022-07-24T14:03:48;3.65;;;2.78;;
74044;SDS011;62389;51.412;5.436;2022-07-24T14:06:13;4.18;;;2.70;;
74044;SDS011;62389;51.412;5.436;2022-07-24T14:08:38;5.10;;;2.92;;
74044;SDS011;62389;51.412;5.436;2022-07-24T14:11:05;3.40;;;2.75;;
74044;SDS011;62389;51.412;5.436;2022-07-24T14:13:30;3.75;;;2.60;;
74044;SDS011;62389;51.412;5.436;2022-07-24T14:15:55;6.85;;;2.78;;
74044;SDS011;62389;51.412;5.436;2022-07-24T14:18:21;4.68;;;2.60;;
74044;SDS011;62389;51.412;5.436;2022-07-24T14:20:46;4.72;;;2.47;;
74044;SDS011;62389;51.412;5.436;2022-07-24T14:23:12;3.35;;;2.28;;
74044;SDS011;62389;51.412;5.436;2022-07-24T14:25:37;3.17;;;2.38;;
74044;SDS011;62389;51.412;5.436;2022-07-24T14:28:03;4.55;;;2.13;;
74044;SDS011;62389;51.412;5.436;2022-07-24T14:30:29;3.22;;;2.22;;
74044;SDS011;62389;51.412;5.436;2022-07-24T14:32:54;2.50;;;1.90;;
74044;SDS011;62389;51.412;5.436;2022-07-24T14:35:19;2.72;;;2.28;;
74044;SDS011;62389;51.412;5.436;2022-07-24T14:37:45;3.30;;;2.30;;
74044;SDS011;62389;51.412;5.436;2022-07-24T14:40:10;4.07;;;2.30;;
74044;SDS011;62389;51.412;5.436;2022-07-24T14:42:35;3.85;;;2.28;;
74044;SDS011;62389;51.412;5.436;2022-07-24T14:45:01;3.10;;;2.10;;
74044;SDS011;62389;51.412;5.436;2022-07-24T14:47:27;4.10;;;2.30;;
74044;SDS011;62389;51.412;5.436;2022-07-24T14:49:52;4.03;;;2.17;;
74044;SDS011;62389;51.412;5.436;2022-07-24T14:52:18;2.80;;;2.00;;
74044;SDS011;62389;51.412;5.436;2022-07-24T14:54:46;4.40;;;2.33;;
74044;SDS011;62389;51.412;5.436;2022-07-24T14:57:11;2.17;;;1.75;;
74044;SDS011;62389;51.412;5.436;2022-07-24T14:59:36;3.42;;;2.17;;
74044;SDS011;62389;51.412;5.436;2022-07-24T15:02:02;3.73;;;2.07;;